createdAt,value
2017-07-23T00:00:47.974Z,18.48
2017-07-23T00:03:16.312Z,18.32
2017-07-23T00:05:44.653Z,18.27
2017-07-23T00:08:13.007Z,18.32
2017-07-23T00:10:41.353Z,18.55
2017-07-23T00:13:09.700Z,18.48
2017-07-23T00:15:38.058Z,18.47
2017-07-23T00:18:06.389Z,18.45
2017-07-23T00:20:34.737Z,18.47
2017-07-23T00:23:03.078Z,18.55
2017-07-23T00:25:32.166Z,18.73
2017-07-23T00:28:00.518Z,18.65
2017-07-23T00:30:28.853Z,18.58
2017-07-23T00:32:57.955Z,18.57
2017-07-23T00:35:26.288Z,18.68
2017-07-23T00:37:54.658Z,18.64
2017-07-23T00:40:23.023Z,18.62
2017-07-23T00:42:51.396Z,18.68
2017-07-23T00:45:19.744Z,18.69
2017-07-23T00:47:48.083Z,18.88
2017-07-23T00:50:16.437Z,18.77
2017-07-23T00:52:44.782Z,18.73
2017-07-23T00:55:13.214Z,18.76
2017-07-23T00:57:41.564Z,18.80
2017-07-23T01:00:09.901Z,18.82
2017-07-23T01:02:38.522Z,18.85
2017-07-23T01:05:06.845Z,18.89
2017-07-23T01:07:35.160Z,18.91
2017-07-23T01:10:03.523Z,18.85
2017-07-23T01:12:31.855Z,18.87
2017-07-23T01:15:00.455Z,18.89
2017-07-23T01:17:28.777Z,18.92
2017-07-23T01:19:57.099Z,18.89
2017-07-23T01:22:25.467Z,18.77
2017-07-23T01:24:53.783Z,18.73
2017-07-23T01:27:22.397Z,18.74
2017-07-23T01:29:50.724Z,18.80
2017-07-23T01:32:19.047Z,18.80
2017-07-23T01:34:47.398Z,18.79
2017-07-23T01:37:15.747Z,18.68
2017-07-23T01:39:44.358Z,18.78
2017-07-23T01:42:12.684Z,18.74
2017-07-23T01:44:41.019Z,18.69
2017-07-23T01:47:09.410Z,18.66
2017-07-23T01:49:37.740Z,18.52
2017-07-23T01:52:06.356Z,18.58
2017-07-23T01:54:34.697Z,18.52
2017-07-23T01:57:03.646Z,18.46
2017-07-23T01:59:31.985Z,18.45
2017-07-23T02:02:00.329Z,18.52
2017-07-23T02:04:29.417Z,18.59
2017-07-23T02:06:57.757Z,18.61
2017-07-23T02:09:26.106Z,18.56
2017-07-23T02:11:55.338Z,18.55
2017-07-23T02:14:23.658Z,18.54
2017-07-23T02:16:52.031Z,18.45
2017-07-23T02:19:21.887Z,18.41
2017-07-23T02:21:50.227Z,18.39
2017-07-23T02:24:18.588Z,18.53
2017-07-23T02:26:46.927Z,18.43
2017-07-23T02:29:15.287Z,18.39
2017-07-23T02:31:43.606Z,18.47
2017-07-23T02:34:11.965Z,18.39
2017-07-23T02:36:40.324Z,18.46
2017-07-23T02:39:08.668Z,18.51
2017-07-23T02:41:37.043Z,18.43
2017-07-23T02:44:05.381Z,18.49
2017-07-23T02:46:33.718Z,18.47
2017-07-23T02:49:02.065Z,18.52
2017-07-23T02:51:30.400Z,18.45
2017-07-23T02:53:58.750Z,18.44
2017-07-23T02:56:27.089Z,18.40
2017-07-23T02:58:55.439Z,18.43
2017-07-23T03:01:23.783Z,18.46
2017-07-23T03:03:52.112Z,18.49
2017-07-23T03:06:20.739Z,18.45
2017-07-23T03:08:49.069Z,18.44
2017-07-23T03:11:17.409Z,18.51
2017-07-23T03:13:45.764Z,18.38
2017-07-23T03:16:14.091Z,18.32
2017-07-23T03:18:42.442Z,18.22
2017-07-23T03:21:10.772Z,18.25
2017-07-23T03:23:39.125Z,18.30
2017-07-23T03:26:08.067Z,18.34
2017-07-23T03:28:36.415Z,18.31
2017-07-23T03:31:05.470Z,18.26
2017-07-23T03:33:33.802Z,18.14
2017-07-23T03:36:02.148Z,18.05
2017-07-23T03:38:30.503Z,18.07
2017-07-23T03:40:58.828Z,17.92
2017-07-23T03:43:27.425Z,17.86
2017-07-23T03:45:55.771Z,17.81
2017-07-23T03:48:24.108Z,17.76
2017-07-23T03:50:52.471Z,17.65
2017-07-23T03:53:20.798Z,17.75
2017-07-23T03:55:49.153Z,17.69
2017-07-23T03:58:17.497Z,17.56
2017-07-23T04:00:45.861Z,17.61
2017-07-23T04:03:14.209Z,17.63
2017-07-23T04:05:42.581Z,17.60
2017-07-23T04:08:10.938Z,17.61
2017-07-23T04:10:40.433Z,17.61
2017-07-23T04:13:08.755Z,17.59
2017-07-23T04:15:37.078Z,17.64
2017-07-23T04:18:05.429Z,17.67
2017-07-23T04:20:33.742Z,17.73
2017-07-23T04:23:02.096Z,17.75
2017-07-23T04:25:30.409Z,17.70
2017-07-23T04:27:58.761Z,17.68
2017-07-23T04:30:27.089Z,17.67
2017-07-23T04:32:55.447Z,17.67
2017-07-23T04:35:23.788Z,17.74
2017-07-23T04:37:52.142Z,17.78
2017-07-23T04:40:21.084Z,17.80
2017-07-23T04:42:50.140Z,17.76
2017-07-23T04:45:18.467Z,17.72
2017-07-23T04:47:50.158Z,17.73
2017-07-23T04:50:18.493Z,17.74
2017-07-23T04:52:46.826Z,17.81
2017-07-23T04:55:15.215Z,17.91
2017-07-23T04:57:43.563Z,17.92
2017-07-23T05:00:12.177Z,17.94
2017-07-23T05:02:40.517Z,17.88
2017-07-23T05:05:08.878Z,17.90
2017-07-23T05:07:37.229Z,17.87
2017-07-23T05:10:05.547Z,17.91
2017-07-23T05:12:34.176Z,17.92
2017-07-23T05:15:02.516Z,17.95
2017-07-23T05:17:30.858Z,18.06
2017-07-23T05:19:59.216Z,18.13
2017-07-23T05:22:27.549Z,18.15
2017-07-23T05:24:55.896Z,18.12
2017-07-23T05:27:24.261Z,18.15
2017-07-23T05:29:52.602Z,18.13
2017-07-23T05:32:20.962Z,18.03
2017-07-23T05:34:49.290Z,18.04
2017-07-23T05:37:17.909Z,17.96
2017-07-23T05:39:46.254Z,17.95
2017-07-23T05:42:14.603Z,17.89
2017-07-23T05:44:43.210Z,17.87
2017-07-23T05:47:11.536Z,17.99
2017-07-23T05:49:39.875Z,18.03
2017-07-23T05:52:08.228Z,18.10
2017-07-23T05:54:36.666Z,18.03
2017-07-23T05:57:05.282Z,17.97
2017-07-23T05:59:33.827Z,18.09
2017-07-23T06:02:02.173Z,18.06
2017-07-23T06:04:30.520Z,18.11
2017-07-23T06:06:58.881Z,18.07
2017-07-23T06:09:28.210Z,18.12
2017-07-23T06:11:56.560Z,18.09
2017-07-23T06:14:24.900Z,18.17
2017-07-23T06:16:53.500Z,18.11
2017-07-23T06:19:21.867Z,18.04
2017-07-23T06:21:50.199Z,18.09
2017-07-23T06:24:18.555Z,18.17
2017-07-23T06:26:46.874Z,18.05
2017-07-23T06:29:15.244Z,18.18
2017-07-23T06:31:43.577Z,18.17
2017-07-23T06:34:11.919Z,18.27
2017-07-23T06:36:40.268Z,18.33
2017-07-23T06:39:08.596Z,18.40
2017-07-23T06:41:37.195Z,18.32
2017-07-23T06:44:05.537Z,18.44
2017-07-23T06:46:33.889Z,18.45
2017-07-23T06:49:02.223Z,18.40
2017-07-23T06:51:30.560Z,18.46
2017-07-23T06:53:58.907Z,18.51
2017-07-23T06:56:27.264Z,18.46
2017-07-23T06:58:55.681Z,18.44
2017-07-23T07:01:24.043Z,18.48
2017-07-23T07:03:52.386Z,18.54
2017-07-23T07:06:20.744Z,18.58
2017-07-23T07:08:49.088Z,18.50
2017-07-23T07:11:17.413Z,18.41
2017-07-23T07:13:45.751Z,18.45
2017-07-23T07:16:14.097Z,18.42
2017-07-23T07:18:43.228Z,18.40
2017-07-23T07:21:11.594Z,18.45
2017-07-23T07:23:39.953Z,18.54
2017-07-23T07:26:08.268Z,18.57
2017-07-23T07:28:36.874Z,18.56
2017-07-23T07:31:05.222Z,18.51
2017-07-23T07:33:33.565Z,18.56
2017-07-23T07:36:01.928Z,18.65
2017-07-23T07:38:30.236Z,18.70
2017-07-23T07:40:58.856Z,18.85
2017-07-23T07:43:27.197Z,18.88
2017-07-23T07:45:55.520Z,18.84
2017-07-23T07:48:23.887Z,18.85
2017-07-23T07:50:52.216Z,18.96
2017-07-23T07:53:20.806Z,18.91
2017-07-23T07:55:51.052Z,18.91
2017-07-23T07:58:19.393Z,19.05
2017-07-23T08:00:47.750Z,19.02
2017-07-23T08:03:16.735Z,18.91
2017-07-23T08:05:45.366Z,18.96
2017-07-23T08:08:13.763Z,19.01
2017-07-23T08:10:42.084Z,18.91
2017-07-23T08:13:10.417Z,19.08
2017-07-23T08:15:38.737Z,19.14
2017-07-23T08:18:07.368Z,19.11
2017-07-23T08:20:35.763Z,19.02
2017-07-23T08:23:04.111Z,19.10
2017-07-23T08:25:32.460Z,19.11
2017-07-23T08:28:00.786Z,19.15
2017-07-23T08:30:29.416Z,19.19
2017-07-23T08:32:57.767Z,19.26
2017-07-23T08:35:26.118Z,19.33
2017-07-23T08:37:54.483Z,19.27
2017-07-23T08:40:23.550Z,19.16
2017-07-23T08:42:51.921Z,19.14
2017-07-23T08:45:20.295Z,19.05
2017-07-23T08:47:48.659Z,18.98
2017-07-23T08:50:17.019Z,18.92
2017-07-23T08:52:45.358Z,18.91
2017-07-23T08:55:13.966Z,18.95
2017-07-23T08:57:42.290Z,18.96
2017-07-23T09:00:10.653Z,19.01
2017-07-23T09:02:39.025Z,19.01
2017-07-23T09:05:07.387Z,19.05
2017-07-23T09:07:35.988Z,19.10
2017-07-23T09:10:04.321Z,19.26
2017-07-23T09:12:32.681Z,19.33
2017-07-23T09:15:01.039Z,19.32
2017-07-23T09:17:29.373Z,19.34
2017-07-23T09:19:57.724Z,19.42
2017-07-23T09:22:26.091Z,19.40
2017-07-23T09:24:54.415Z,19.27
2017-07-23T09:27:22.790Z,19.26
2017-07-23T09:29:51.160Z,19.39
2017-07-23T09:32:19.855Z,19.37
2017-07-23T09:34:48.206Z,19.28
2017-07-23T09:37:16.544Z,19.28
2017-07-23T09:39:44.910Z,19.16
2017-07-23T09:42:13.528Z,19.26
2017-07-23T09:44:41.863Z,19.33
2017-07-23T09:47:10.215Z,19.15
2017-07-23T09:49:38.583Z,19.32
2017-07-23T09:52:06.966Z,19.43
2017-07-23T09:54:35.309Z,19.50
2017-07-23T09:57:03.675Z,19.51
2017-07-23T09:59:32.028Z,19.49
2017-07-23T10:02:00.388Z,19.54
2017-07-23T10:04:29.007Z,19.55
2017-07-23T10:06:57.366Z,19.58
2017-07-23T10:09:25.687Z,19.57
2017-07-23T10:11:54.034Z,19.68
2017-07-23T10:14:22.371Z,19.71
2017-07-23T10:16:50.983Z,19.66
2017-07-23T10:19:19.339Z,19.64
2017-07-23T10:21:47.706Z,19.70
2017-07-23T10:24:16.051Z,19.68
2017-07-23T10:26:44.381Z,19.78
2017-07-23T10:29:12.753Z,19.82
2017-07-23T10:31:41.120Z,19.79
2017-07-23T10:34:09.466Z,19.71
2017-07-23T10:36:37.816Z,19.54
2017-07-23T10:39:06.158Z,19.73
2017-07-23T10:41:34.512Z,19.92
2017-07-23T10:44:02.880Z,19.91
2017-07-23T10:46:31.229Z,20.04
2017-07-23T10:48:59.831Z,20.15
2017-07-23T10:51:28.147Z,20.31
2017-07-23T10:53:56.505Z,20.44
2017-07-23T10:56:24.852Z,20.48
2017-07-23T10:58:53.171Z,20.44
2017-07-23T11:01:21.538Z,20.48
2017-07-23T11:03:49.889Z,20.49
2017-07-23T11:06:18.208Z,20.56
2017-07-23T11:08:46.809Z,20.70
2017-07-23T11:11:15.180Z,20.68
2017-07-23T11:13:43.528Z,20.81
2017-07-23T11:16:11.920Z,20.84
2017-07-23T11:18:40.256Z,20.85
2017-07-23T11:21:08.620Z,20.98
2017-07-23T11:23:36.969Z,20.77
2017-07-23T11:26:05.298Z,20.94
2017-07-23T11:28:33.888Z,20.80
2017-07-23T11:31:02.275Z,20.80
2017-07-23T11:33:30.605Z,20.86
2017-07-23T11:35:58.957Z,20.94
2017-07-23T11:38:27.300Z,20.96
2017-07-23T11:40:55.680Z,20.86
2017-07-23T11:43:24.105Z,20.87
2017-07-23T11:45:52.437Z,20.68
2017-07-23T11:48:21.882Z,20.57
2017-07-23T11:50:50.217Z,20.57
2017-07-23T11:53:18.568Z,20.60
2017-07-23T11:55:46.947Z,20.68
2017-07-23T11:58:15.292Z,20.76
2017-07-23T12:00:43.918Z,20.68
2017-07-23T12:03:12.271Z,20.77
2017-07-23T12:05:40.618Z,20.69
2017-07-23T12:08:08.956Z,20.86
2017-07-23T12:10:37.299Z,20.82
2017-07-23T12:13:05.909Z,21.02
2017-07-23T12:15:34.233Z,20.99
2017-07-23T12:18:02.559Z,21.04
2017-07-23T12:20:30.906Z,21.23
2017-07-23T12:22:59.224Z,21.42
2017-07-23T12:25:27.836Z,21.52
2017-07-23T12:27:56.176Z,21.59
2017-07-23T12:30:24.506Z,21.53
2017-07-23T12:32:52.856Z,21.52
2017-07-23T12:35:21.194Z,21.62
2017-07-23T12:37:49.816Z,21.58
2017-07-23T12:40:18.153Z,21.61
2017-07-23T12:42:46.491Z,21.71
2017-07-23T12:45:14.854Z,21.66
2017-07-23T12:47:43.178Z,21.57
2017-07-23T12:50:11.844Z,21.56
2017-07-23T12:52:40.199Z,21.58
2017-07-23T12:55:08.541Z,21.66
2017-07-23T12:57:36.896Z,21.71
2017-07-23T13:00:05.245Z,21.73
2017-07-23T13:02:33.597Z,21.71
2017-07-23T13:05:01.957Z,21.74
2017-07-23T13:07:30.282Z,21.79
2017-07-23T13:09:58.882Z,21.83
2017-07-23T13:12:27.204Z,21.84
2017-07-23T13:14:55.564Z,21.88
2017-07-23T13:17:23.982Z,21.89
2017-07-23T13:19:52.345Z,21.80
2017-07-23T13:22:20.923Z,21.75
2017-07-23T13:24:49.236Z,21.60
2017-07-23T13:27:17.569Z,21.51
2017-07-23T13:29:45.919Z,21.48
2017-07-23T13:32:14.522Z,21.50
2017-07-23T13:34:43.123Z,21.43
2017-07-23T13:37:11.456Z,21.44
2017-07-23T13:39:39.788Z,21.41
2017-07-23T13:42:08.137Z,21.31
2017-07-23T13:44:36.472Z,21.29
2017-07-23T13:47:05.539Z,21.24
2017-07-23T13:49:33.884Z,21.29
2017-07-23T13:52:02.204Z,21.09
2017-07-23T13:54:30.543Z,21.05
2017-07-23T13:56:58.885Z,20.98
2017-07-23T13:59:27.246Z,21.06
2017-07-23T14:01:55.616Z,21.04
2017-07-23T14:04:23.956Z,21.24
2017-07-23T14:06:52.327Z,21.24
2017-07-23T14:09:20.658Z,21.07
2017-07-23T14:11:49.260Z,21.06
2017-07-23T14:14:17.603Z,21.22
2017-07-23T14:16:46.036Z,21.31
2017-07-23T14:19:14.409Z,21.35
2017-07-23T14:21:42.740Z,21.38
2017-07-23T14:24:11.344Z,21.35
2017-07-23T14:26:39.684Z,21.42
2017-07-23T14:29:08.068Z,21.44
2017-07-23T14:31:36.424Z,21.44
2017-07-23T14:34:04.796Z,21.33
2017-07-23T14:36:33.157Z,21.37
2017-07-23T14:39:01.533Z,21.61
2017-07-23T14:41:29.944Z,21.75
2017-07-23T14:43:58.292Z,21.80
2017-07-23T14:46:26.617Z,21.90
2017-07-23T14:48:55.310Z,21.99
2017-07-23T14:51:23.683Z,22.17
2017-07-23T14:53:52.182Z,22.31
2017-07-23T14:56:21.129Z,22.35
2017-07-23T14:58:49.473Z,22.31
2017-07-23T15:01:18.072Z,22.35
2017-07-23T15:03:46.412Z,22.41
2017-07-23T15:06:14.741Z,22.30
2017-07-23T15:08:43.307Z,22.39
2017-07-23T15:11:11.641Z,22.36
2017-07-23T15:13:40.243Z,22.03
2017-07-23T15:16:08.576Z,22.07
2017-07-23T15:18:37.390Z,21.91
2017-07-23T15:21:05.990Z,21.84
2017-07-23T15:23:34.326Z,21.89
2017-07-23T15:26:02.660Z,22.01
2017-07-23T15:28:31.780Z,22.58
2017-07-23T15:31:00.110Z,23.22
2017-07-23T15:33:28.451Z,23.61
2017-07-23T15:35:56.802Z,24.08
2017-07-23T15:38:25.151Z,24.55
2017-07-23T15:40:53.774Z,24.24
2017-07-23T15:43:22.117Z,24.05
2017-07-23T15:45:50.439Z,23.92
2017-07-23T15:48:18.815Z,23.66
2017-07-23T15:50:47.139Z,23.47
2017-07-23T15:53:15.511Z,23.28
2017-07-23T15:55:43.903Z,23.41
2017-07-23T15:58:12.237Z,23.54
2017-07-23T16:00:40.575Z,23.55
2017-07-23T16:03:08.914Z,23.52
2017-07-23T16:05:37.528Z,23.55
2017-07-23T16:08:05.873Z,23.67
2017-07-23T16:10:34.208Z,23.56
2017-07-23T16:13:03.572Z,23.16
2017-07-23T16:15:31.901Z,22.92
2017-07-23T16:18:00.246Z,22.78
2017-07-23T16:20:28.612Z,22.88
2017-07-23T16:22:56.928Z,22.94
2017-07-23T16:25:25.277Z,22.71
2017-07-23T16:27:53.627Z,22.81
2017-07-23T16:30:21.961Z,22.69
2017-07-23T16:32:50.330Z,22.56
2017-07-23T16:35:18.691Z,22.62
2017-07-23T16:37:47.015Z,22.84
2017-07-23T16:40:15.367Z,23.05
2017-07-23T16:42:43.715Z,23.06
2017-07-23T16:45:12.089Z,23.07
2017-07-23T16:47:40.442Z,23.02
2017-07-23T16:50:08.780Z,22.87
2017-07-23T16:52:37.117Z,23.02
2017-07-23T16:55:05.440Z,23.02
2017-07-23T16:57:34.051Z,23.20
2017-07-23T17:00:02.378Z,23.39
2017-07-23T17:02:30.714Z,23.34
2017-07-23T17:04:59.760Z,23.58
2017-07-23T17:07:28.092Z,23.43
2017-07-23T17:09:56.716Z,23.58
2017-07-23T17:12:25.031Z,23.74
2017-07-23T17:14:53.371Z,23.52
2017-07-23T17:17:21.715Z,23.37
2017-07-23T17:19:50.045Z,23.32
2017-07-23T17:22:18.405Z,23.24
2017-07-23T17:24:46.758Z,23.11
2017-07-23T17:27:15.088Z,23.02
2017-07-23T17:29:43.443Z,22.92
2017-07-23T17:32:11.792Z,22.94
2017-07-23T17:34:41.181Z,22.93
2017-07-23T17:37:09.516Z,22.88
2017-07-23T17:39:37.866Z,22.70
2017-07-23T17:42:06.243Z,22.54
2017-07-23T17:44:34.566Z,22.26
2017-07-23T17:47:03.183Z,22.25
2017-07-23T17:49:32.306Z,22.25
2017-07-23T17:52:01.538Z,22.12
2017-07-23T17:54:29.898Z,22.15
2017-07-23T17:56:58.244Z,22.06
2017-07-23T17:59:27.704Z,22.09
2017-07-23T18:01:56.049Z,22.00
2017-07-23T18:04:24.374Z,21.88
2017-07-23T18:06:52.736Z,21.84
2017-07-23T18:09:21.138Z,21.94
2017-07-23T18:11:49.783Z,21.60
2017-07-23T18:14:18.128Z,21.67
2017-07-23T18:16:46.469Z,21.69
2017-07-23T18:19:14.926Z,21.68
2017-07-23T18:21:43.280Z,21.60
2017-07-23T18:24:11.664Z,21.41
2017-07-23T18:26:40.263Z,21.25
2017-07-23T18:29:08.592Z,20.91
2017-07-23T18:31:36.978Z,20.94
2017-07-23T18:34:05.560Z,20.77
2017-07-23T18:36:34.011Z,20.66
2017-07-23T18:39:02.598Z,20.68
2017-07-23T18:41:31.204Z,20.37
2017-07-23T18:43:59.665Z,20.56
2017-07-23T18:46:28.441Z,20.39
2017-07-23T18:48:56.772Z,20.34
2017-07-23T18:51:25.103Z,20.12
2017-07-23T18:53:53.468Z,20.09
2017-07-23T18:56:21.863Z,19.89
2017-07-23T18:58:50.902Z,19.79
2017-07-23T19:01:19.357Z,19.76
2017-07-23T19:03:48.042Z,19.64
2017-07-23T19:06:16.398Z,19.52
2017-07-23T19:08:44.737Z,19.40
2017-07-23T19:11:13.375Z,19.37
2017-07-23T19:13:41.730Z,19.35
2017-07-23T19:16:10.158Z,19.25
2017-07-23T19:18:38.517Z,19.23
2017-07-23T19:21:06.849Z,19.25
2017-07-23T19:23:36.326Z,19.20
2017-07-23T19:26:04.657Z,19.14
2017-07-23T19:28:33.019Z,19.13
2017-07-23T19:31:02.203Z,19.07
2017-07-23T19:33:30.540Z,19.03
2017-07-23T19:35:59.666Z,19.01
2017-07-23T19:38:28.030Z,18.99
2017-07-23T19:40:56.384Z,19.15
2017-07-23T19:43:25.566Z,19.22
2017-07-23T19:45:54.036Z,19.10
2017-07-23T19:48:23.218Z,18.97
2017-07-23T19:50:51.722Z,18.89
2017-07-23T19:53:20.275Z,18.87
2017-07-23T19:55:48.661Z,18.82
2017-07-23T19:58:17.004Z,18.82
2017-07-23T20:00:45.684Z,18.82
2017-07-23T20:03:14.024Z,18.81
2017-07-23T20:05:42.367Z,18.76
2017-07-23T20:08:10.743Z,18.75
2017-07-23T20:10:39.088Z,18.77
2017-07-23T20:13:07.716Z,18.72
2017-07-23T20:15:36.044Z,18.72
2017-07-23T20:18:04.385Z,18.65
2017-07-23T20:20:32.929Z,18.54
2017-07-23T20:23:01.264Z,18.47
2017-07-23T20:25:29.934Z,18.45
2017-07-23T20:27:58.297Z,18.42
2017-07-23T20:30:26.654Z,18.40
2017-07-23T20:32:55.010Z,18.38
2017-07-23T20:35:23.384Z,18.47
2017-07-23T20:37:51.768Z,18.43
2017-07-23T20:40:20.128Z,18.40
2017-07-23T20:42:48.464Z,18.52
2017-07-23T20:45:17.085Z,18.33
2017-07-23T20:47:45.431Z,18.09
2017-07-23T20:50:13.755Z,18.05
2017-07-23T20:52:42.102Z,18.03
2017-07-23T20:55:10.427Z,17.98
2017-07-23T20:57:39.037Z,17.96
2017-07-23T21:00:08.242Z,17.89
2017-07-23T21:02:36.606Z,17.99
2017-07-23T21:05:05.226Z,17.96
2017-07-23T21:07:33.575Z,17.90
2017-07-23T21:10:01.918Z,17.85
2017-07-23T21:12:30.264Z,17.89
2017-07-23T21:14:58.595Z,18.00
2017-07-23T21:17:27.240Z,17.89
2017-07-23T21:19:55.586Z,17.79
2017-07-23T21:22:23.948Z,17.74
2017-07-23T21:24:52.578Z,17.68
2017-07-23T21:27:20.916Z,17.73
2017-07-23T21:29:49.245Z,17.69
2017-07-23T21:32:17.626Z,17.79
2017-07-23T21:34:45.978Z,17.64
2017-07-23T21:37:14.594Z,17.59
2017-07-23T21:39:42.939Z,17.53
2017-07-23T21:42:11.284Z,17.40
2017-07-23T21:44:39.629Z,17.42
2017-07-23T21:47:07.966Z,17.44
2017-07-23T21:49:36.577Z,17.58
2017-07-23T21:52:04.916Z,17.56
2017-07-23T21:54:33.250Z,17.53
2017-07-23T21:57:01.628Z,17.51
2017-07-23T21:59:30.750Z,17.49
2017-07-23T22:01:59.422Z,17.45
2017-07-23T22:04:27.775Z,17.43
2017-07-23T22:06:56.151Z,17.50
2017-07-23T22:09:24.514Z,17.53
2017-07-23T22:11:52.845Z,17.53
2017-07-23T22:14:21.491Z,17.45
2017-07-23T22:16:49.820Z,17.46
2017-07-23T22:19:18.163Z,17.36
2017-07-23T22:21:46.794Z,17.50
2017-07-23T22:24:15.124Z,17.50
2017-07-23T22:26:43.466Z,17.50
2017-07-23T22:29:12.099Z,17.53
2017-07-23T22:31:40.434Z,17.39
2017-07-23T22:34:08.763Z,17.27
2017-07-23T22:36:37.130Z,17.33
2017-07-23T22:39:05.456Z,17.35
2017-07-23T22:41:33.795Z,17.31
2017-07-23T22:44:02.140Z,17.29
2017-07-23T22:46:30.471Z,17.32
2017-07-23T22:48:58.837Z,17.37
2017-07-23T22:51:27.159Z,17.38
2017-07-23T22:53:55.786Z,17.40
2017-07-23T22:56:24.131Z,17.43
2017-07-23T22:58:52.499Z,17.46
2017-07-23T23:01:20.851Z,17.46
2017-07-23T23:03:49.892Z,17.41
2017-07-23T23:06:18.466Z,17.40
2017-07-23T23:08:46.798Z,17.40
2017-07-23T23:11:15.125Z,17.46
2017-07-23T23:13:43.469Z,17.43
2017-07-23T23:16:11.816Z,17.36
2017-07-23T23:18:40.463Z,17.39
2017-07-23T23:21:08.784Z,17.47
2017-07-23T23:23:37.123Z,17.40
2017-07-23T23:26:05.476Z,17.33
2017-07-23T23:28:33.795Z,17.40
2017-07-23T23:31:02.148Z,17.46
2017-07-23T23:33:30.489Z,17.47
2017-07-23T23:35:58.828Z,17.46
2017-07-23T23:38:27.200Z,17.20
2017-07-23T23:40:55.542Z,17.28
2017-07-23T23:43:23.906Z,17.27
2017-07-23T23:45:52.262Z,17.21
2017-07-23T23:48:20.589Z,17.25
2017-07-23T23:50:48.936Z,17.19
2017-07-23T23:53:17.277Z,17.23
2017-07-23T23:55:45.656Z,17.22
2017-07-23T23:58:14.013Z,17.12
